TimeCET,TemperatureF,Dew PointF,Humidity,Sea Level PressureIn,VisibilityMPH,Wind Direction,Wind SpeedMPH,Gust SpeedMPH,PrecipitationIn,Events,Conditions,WindDirDegrees,DateUTC
12:25 AM,50.0,41.0,71,29.33,6.2,WNW,18.4,-,N/A,Rain,Light Rain Showers,290,2013-11-05 23:25:00
12:55 AM,50.0,42.8,76,29.33,6.2,West,17.3,-,N/A,Rain,Light Rain Showers,280,2013-11-05 23:55:00
1:00 AM,48,43,77,29.36,12,West,20.1,,,Rain,Light Rain Showers,270,2013-11-06 00:00:00
1:25 AM,46.4,42.8,87,29.36,5.6,West,24.2,-,N/A,Rain,Light Rain Showers,280,2013-11-06 00:25:00
1:55 AM,46.4,42.8,87,29.36,6.2,West,16.1,-,N/A,,Scattered Clouds,280,2013-11-06 00:55:00
2:25 AM,48.2,44.6,87,29.39,6.2,West,12.7,-,N/A,,Scattered Clouds,270,2013-11-06 01:25:00
2:55 AM,48.2,42.8,82,29.39,6.2,West,15.0,26.5,N/A,,Scattered Clouds,280,2013-11-06 01:55:00
3:25 AM,48.2,42.8,82,29.39,6.2,West,16.1,-,N/A,,Scattered Clouds,270,2013-11-06 02:25:00
3:55 AM,48.2,41.0,76,29.42,6.2,West,19.6,-,N/A,,Partly Cloudy,270,2013-11-06 02:55:00
4:00 AM,48,42,71,29.44,13,West,20.1,,,,Partly Cloudy,270,2013-11-06 03:00:00
4:25 AM,48.2,41.0,76,29.42,6.2,West,18.4,-,N/A,,Scattered Clouds,280,2013-11-06 03:25:00
4:55 AM,48.2,41.0,76,29.44,6.2,West,17.3,-,N/A,,Scattered Clouds,280,2013-11-06 03:55:00
5:25 AM,48.2,41.0,76,29.44,6.2,West,17.3,-,N/A,,Scattered Clouds,270,2013-11-06 04:25:00
5:55 AM,48.2,41.0,76,29.44,6.2,West,15.0,-,N/A,,Scattered Clouds,270,2013-11-06 04:55:00
6:25 AM,48.2,41.0,76,29.44,6.2,West,13.8,-,N/A,,Partly Cloudy,270,2013-11-06 05:25:00
6:55 AM,48.2,42.8,82,29.44,6.2,West,13.8,-,N/A,,Scattered Clouds,260,2013-11-06 05:55:00
7:00 AM,48,42,75,29.47,9,West,13.4,,,Rain,Light Rain Showers,270,2013-11-06 06:00:00
7:25 AM,48.2,42.8,82,29.44,6.2,West,11.5,-,N/A,,Scattered Clouds,260,2013-11-06 06:25:00
7:55 AM,50.0,42.8,76,29.47,6.2,West,13.8,-,N/A,,Scattered Clouds,260,2013-11-06 06:55:00
8:25 AM,50.0,42.8,76,29.47,6.2,WSW,13.8,-,N/A,,Partly Cloudy,250,2013-11-06 07:25:00
8:55 AM,50.0,42.8,76,29.47,6.2,West,15.0,-,N/A,,Partly Cloudy,260,2013-11-06 07:55:00
9:25 AM,50.0,42.8,76,29.50,6.2,West,15.0,-,N/A,,Scattered Clouds,260,2013-11-06 08:25:00
9:55 AM,51.8,44.6,76,29.50,6.2,West,12.7,-,N/A,,Scattered Clouds,260,2013-11-06 08:55:00
10:00 AM,52,44,66,29.52,14,West,13.4,,,,Overcast,260,2013-11-06 09:00:00
10:25 AM,51.8,44.6,76,29.50,6.2,West,12.7,-,N/A,,Scattered Clouds,260,2013-11-06 09:25:00
10:55 AM,51.8,44.6,76,29.50,6.2,West,13.8,-,N/A,,Scattered Clouds,260,2013-11-06 09:55:00
11:25 AM,53.6,44.6,72,29.50,6.2,West,12.7,-,N/A,,Partly Cloudy,260,2013-11-06 10:25:00
11:55 AM,53.6,44.6,72,29.50,6.2,West,12.7,-,N/A,,Scattered Clouds,260,2013-11-06 10:55:00
12:25 PM,53.6,44.6,72,29.50,6.2,West,12.7,-,N/A,,Scattered Clouds,260,2013-11-06 11:25:00
12:55 PM,53.6,46.4,77,29.50,6.2,West,12.7,-,N/A,,Scattered Clouds,260,2013-11-06 11:55:00
1:00 PM,,,,29.54,14,West,13.4,,,,Partly Cloudy,260,2013-11-06 12:00:00
1:25 PM,53.6,46.4,77,29.53,6.2,West,12.7,-,N/A,,Scattered Clouds,260,2013-11-06 12:25:00
1:55 PM,53.6,46.4,77,29.53,6.2,West,9.2,-,N/A,,Mostly Cloudy,270,2013-11-06 12:55:00
2:25 PM,53.6,46.4,77,29.53,6.2,West,12.7,-,N/A,,Partly Cloudy,260,2013-11-06 13:25:00
2:55 PM,53.6,46.4,77,29.53,6.2,WSW,10.4,-,N/A,Rain,Light Rain,250,2013-11-06 13:55:00
3:25 PM,51.8,46.4,82,29.53,6.2,WSW,13.8,-,N/A,Rain,Light Rain,250,2013-11-06 14:25:00
3:55 PM,51.8,48.2,88,29.53,6.2,WSW,10.4,-,N/A,Rain,Light Rain,240,2013-11-06 14:55:00
4:00 PM,52,48,80,29.55,12,WSW,8.9,,,Rain,Light Rain,240,2013-11-06 15:00:00
4:25 PM,51.8,48.2,88,29.53,6.2,SW,8.1,-,N/A,Rain,Light Rain,220,2013-11-06 15:25:00
4:55 PM,51.8,48.2,88,29.53,6.2,SW,10.4,-,N/A,Rain,Light Rain,230,2013-11-06 15:55:00
5:25 PM,50.0,48.2,94,29.53,6.2,SSW,9.2,-,N/A,Rain,Light Rain,210,2013-11-06 16:25:00
5:55 PM,50.0,48.2,94,29.53,5.6,SSW,10.4,-,N/A,Rain,Rain,200,2013-11-06 16:55:00
6:25 PM,50.0,48.2,94,29.53,-9999.0,SSW,8.1,-,N/A,Rain,Rain,200,2013-11-06 17:25:00
6:55 PM,50.0,48.2,94,29.53,3.7,South,6.9,-,N/A,Rain,Rain,190,2013-11-06 17:55:00
7:00 PM,49,49,98,29.55,3,South,6.7,,,Rain,Heavy Drizzle,190,2013-11-06 18:00:00
7:25 PM,50.0,48.2,94,29.50,2.8,SSE,6.9,-,N/A,Rain,Rain,160,2013-11-06 18:25:00
7:55 PM,50.0,50.0,100,29.50,1.9,SSE,8.1,-,N/A,Rain,Rain,150,2013-11-06 18:55:00
8:25 PM,50.0,50.0,100,29.50,1.8,SSE,8.1,-,N/A,Rain,Rain,160,2013-11-06 19:25:00
8:55 PM,51.8,51.8,100,29.47,3.1,South,9.2,-,N/A,Rain,Light Drizzle,170,2013-11-06 19:55:00
9:25 PM,57.2,53.6,88,29.47,6.2,SW,20.7,-,N/A,,Mostly Cloudy,230,2013-11-06 20:25:00
9:55 PM,57.2,53.6,88,29.47,6.2,SW,25.3,36.8,N/A,,Mostly Cloudy,230,2013-11-06 20:55:00
10:00 PM,58,54,83,29.48,7,SW,26.8,,,Rain,Drizzle,230,2013-11-06 21:00:00
10:25 PM,57.2,53.6,88,29.44,6.2,SW,27.6,-,N/A,,Mostly Cloudy,230,2013-11-06 21:25:00
10:55 PM,59.0,53.6,82,29.44,6.2,SW,28.8,41.4,N/A,Rain,Light Rain,230,2013-11-06 21:55:00
11:25 PM,59.0,53.6,82,29.44,5.6,SW,26.5,-,N/A,,Light Drizzle,230,2013-11-06 22:25:00
11:55 PM,57.2,53.6,88,29.44,6.2,SW,28.8,-,N/A,,Mostly Cloudy,230,2013-11-06 22:55:00